createdAt,value
2018-07-03T06:53:04.879Z,1
2018-07-03T06:53:21.255Z,1.2
2018-07-03T06:53:37.704Z,1.2
2018-07-03T06:53:54.139Z,1.4
2018-07-03T06:54:40.086Z,1.4
2018-07-03T06:54:56.867Z,1.6
2018-07-03T06:55:14.179Z,1.6
2018-07-03T06:56:02.595Z,2.1
2018-07-03T06:56:20.644Z,2
2018-07-03T06:56:46.010Z,2.1
2018-07-03T06:57:02.754Z,2.2
2018-07-03T06:57:19.345Z,2.4
2018-07-03T06:57:37.344Z,3.3
2018-07-03T06:57:54.291Z,3.8
2018-07-03T06:58:11.920Z,3.4
2018-07-03T06:58:28.545Z,3.2
2018-07-03T06:58:46.143Z,3.2
2018-07-03T06:59:02.851Z,3.2
2018-07-03T06:59:19.626Z,2.9
2018-07-03T06:59:36.219Z,3.4
2018-07-03T06:59:52.814Z,3.7
2018-07-03T07:00:09.497Z,3.4
2018-07-03T07:00:26.100Z,2.5
2018-07-03T07:00:42.712Z,1.8
2018-07-03T07:00:59.391Z,1.6
2018-07-03T07:01:16.017Z,1.6
2018-07-03T07:01:32.523Z,1.6
2018-07-03T07:01:49.014Z,1.5
2018-07-03T07:02:05.556Z,1.6
2018-07-03T07:02:22.152Z,1.6
2018-07-03T07:02:38.943Z,1.5
2018-07-03T07:02:55.609Z,1.4
2018-07-03T07:03:12.162Z,1.4
2018-07-03T07:03:28.863Z,1.6
2018-07-03T07:03:45.388Z,1.6
2018-07-03T07:04:01.876Z,1.6
2018-07-03T07:04:18.403Z,1.5
2018-07-03T07:04:35.107Z,1.4
2018-07-03T07:04:51.627Z,1.4
2018-07-03T07:05:08.365Z,1.4
2018-07-03T07:05:24.878Z,1.4
2018-07-03T07:05:41.567Z,1.4
2018-07-03T07:05:58.164Z,1.5
2018-07-03T07:06:14.672Z,1.6
2018-07-03T07:06:31.263Z,1.5
2018-07-03T07:06:47.814Z,1.3
2018-07-03T07:07:04.462Z,1.5
2018-07-03T07:07:20.946Z,1.5
2018-07-03T07:07:37.464Z,1.4
2018-07-03T07:07:53.971Z,1.4
2018-07-03T07:08:10.612Z,1.3
2018-07-03T07:08:27.131Z,1.3
2018-07-03T07:08:43.764Z,1.4
2018-07-03T07:09:00.384Z,1.2
2018-07-03T07:09:16.855Z,1.3
2018-07-03T07:09:33.570Z,1.4
2018-07-03T07:09:59.653Z,1.4
2018-07-03T07:10:16.204Z,1.2
2018-07-03T07:10:32.921Z,1.4
2018-07-03T07:10:49.565Z,1.4
2018-07-03T07:11:06.262Z,1.4
2018-07-03T07:11:23.005Z,1.4
2018-07-03T07:11:39.548Z,1.4
2018-07-03T07:11:56.107Z,1.5
2018-07-03T07:12:12.678Z,1.4
2018-07-03T07:12:29.142Z,1.3
2018-07-03T07:12:45.769Z,1.4
2018-07-03T07:13:02.375Z,1.3
2018-07-03T07:13:18.892Z,1.2
2018-07-03T07:13:35.394Z,1.3
2018-07-03T07:13:52.176Z,1.3
2018-07-03T07:14:08.734Z,1.3
2018-07-03T07:14:25.239Z,1.4
2018-07-03T07:14:41.883Z,1.2
2018-07-03T07:14:58.393Z,1.1
2018-07-03T07:15:14.852Z,1.2
2018-07-03T07:15:31.430Z,1.4
2018-07-03T07:15:48.197Z,1.3
2018-07-03T07:16:04.733Z,1.3
2018-07-03T07:16:21.360Z,1.3
2018-07-03T07:16:37.865Z,1.3
2018-07-03T07:16:54.423Z,1.5
2018-07-03T07:17:10.962Z,1.4
2018-07-03T07:17:27.615Z,1.3
2018-07-03T07:17:44.152Z,1.4
2018-07-03T07:18:00.734Z,1.4
2018-07-03T07:18:17.466Z,1.4
2018-07-03T07:18:34.008Z,1.5
2018-07-03T07:18:51.368Z,1.6
2018-07-03T07:19:08.674Z,1.5
2018-07-03T07:19:59.759Z,1.3
2018-07-03T07:20:16.767Z,1.2
2018-07-03T07:20:34.170Z,1.5
2018-07-03T07:20:51.899Z,1.5
2018-07-03T07:21:09.025Z,1.3
2018-07-03T07:21:26.091Z,1.3
2018-07-03T07:21:43.188Z,1.5
2018-07-03T07:22:01.536Z,1.4
2018-07-03T07:22:18.679Z,1.4
2018-07-03T07:24:48.376Z,1.6
2018-07-03T07:25:05.212Z,1.5
2018-07-03T07:25:21.659Z,1.4
2018-07-03T07:25:39.363Z,1.5
2018-07-03T07:25:55.872Z,1.3
2018-07-03T07:26:12.408Z,1.2
2018-07-03T07:26:29.576Z,1.3
2018-07-03T07:26:46.256Z,1.4
2018-07-03T07:27:02.735Z,1.3
2018-07-03T07:27:19.223Z,1.3
2018-07-03T07:27:35.880Z,1.4
2018-07-03T07:27:52.460Z,1.4
2018-07-03T07:28:09.013Z,1.6
2018-07-03T07:28:25.571Z,1.5
2018-07-03T07:28:42.130Z,1.3
2018-07-03T07:28:58.710Z,1.2
2018-07-03T07:29:15.447Z,1.4
2018-07-03T07:29:32.067Z,1.4
2018-07-03T07:29:48.541Z,1.1
2018-07-03T07:30:05.079Z,1.2
2018-07-03T07:30:21.593Z,1.5
2018-07-03T07:30:38.299Z,1.6
2018-07-03T07:30:54.834Z,1.5
2018-07-03T07:31:11.554Z,1.5
2018-07-03T07:31:28.060Z,1.7
2018-07-03T07:31:44.556Z,1.5
2018-07-03T07:32:01.098Z,1.4
2018-07-03T07:32:17.705Z,1.6
2018-07-03T07:32:34.254Z,1.5
2018-07-03T07:32:50.854Z,1.3
2018-07-03T07:33:07.564Z,1.3
2018-07-03T07:33:24.129Z,1.4
2018-07-03T07:33:40.729Z,1.4
2018-07-03T07:33:57.314Z,1.3
2018-07-03T07:34:25.313Z,1.5
2018-07-03T07:34:41.816Z,1.6
2018-07-03T07:34:58.750Z,1.6
2018-07-03T07:35:15.351Z,1.8
2018-07-03T07:35:32.084Z,2
2018-07-03T07:35:48.785Z,1.9
2018-07-03T07:36:05.567Z,1.8
2018-07-03T07:36:22.128Z,1.8
2018-07-03T07:36:38.714Z,1.9
2018-07-03T07:36:55.183Z,1.9
2018-07-03T07:37:11.706Z,1.9
2018-07-03T07:37:28.281Z,2.2
2018-07-03T07:37:44.823Z,2.1
2018-07-03T07:38:01.344Z,2.2
2018-07-03T07:38:17.903Z,2.4
2018-07-03T07:38:34.500Z,2.5
2018-07-03T07:38:51.031Z,2.1
2018-07-03T07:39:07.514Z,1.8
2018-07-03T07:39:24.113Z,2.1
2018-07-03T07:39:40.591Z,2
2018-07-03T07:39:57.148Z,1.8
2018-07-03T07:40:13.670Z,1.9
2018-07-03T07:40:30.308Z,2
2018-07-03T07:40:46.868Z,2
2018-07-03T07:41:03.353Z,1.8
2018-07-03T07:41:19.945Z,1.5
2018-07-03T07:41:36.451Z,1.4
2018-07-03T07:41:52.965Z,1.6
2018-07-03T07:42:09.509Z,1.6
2018-07-03T07:42:26.033Z,1.5
2018-07-03T07:42:42.678Z,1.3
2018-07-03T07:43:07.172Z,1.4
2018-07-03T07:43:23.719Z,1.5
2018-07-03T07:43:40.223Z,1.3
2018-07-03T07:43:56.756Z,1.4
2018-07-03T07:44:13.306Z,1.8
2018-07-03T07:44:29.826Z,1.7
2018-07-03T07:44:46.366Z,1.6
2018-07-03T07:45:02.907Z,1.6
2018-07-03T07:45:19.434Z,1.6
2018-07-03T07:45:35.993Z,1.5
2018-07-03T07:45:52.512Z,1.6
2018-07-03T07:46:09.021Z,1.8
2018-07-03T07:46:42.151Z,1.6
2018-07-03T07:46:58.674Z,1.6
2018-07-03T07:47:15.261Z,1.5
2018-07-03T07:47:31.821Z,1.6
2018-07-03T07:47:48.417Z,1.8
2018-07-03T07:48:04.918Z,1.8
2018-07-03T07:48:21.732Z,1.7
2018-07-03T07:48:38.224Z,1.5
2018-07-03T07:48:54.775Z,1.6
2018-07-03T07:49:11.311Z,1.6
2018-07-03T07:49:27.843Z,1.5
2018-07-03T07:49:44.380Z,1.5
2018-07-03T07:50:00.902Z,1.5
2018-07-03T07:50:17.468Z,1.5
2018-07-03T07:50:34.013Z,1.7
2018-07-03T07:50:51.478Z,1.6
2018-07-03T07:51:08.011Z,1.8
2018-07-03T07:51:24.562Z,2
2018-07-03T07:51:41.094Z,1.8
2018-07-03T07:51:57.562Z,1.7
2018-07-03T07:52:14.070Z,1.6
2018-07-03T07:52:30.560Z,1.8
2018-07-03T07:52:47.067Z,1.9
2018-07-03T07:53:03.553Z,1.8
2018-07-03T07:53:20.088Z,1.7
2018-07-03T07:53:36.700Z,1.7
2018-07-03T07:53:53.228Z,1.7
2018-07-03T07:54:09.826Z,1.7
2018-07-03T07:54:26.358Z,1.7
2018-07-03T07:54:42.921Z,1.8
2018-07-03T07:54:59.418Z,1.6
2018-07-03T07:55:15.907Z,1.6
2018-07-03T07:55:32.405Z,1.6
2018-07-03T07:55:48.952Z,1.5
2018-07-03T07:56:05.471Z,1.4
2018-07-03T07:56:22.063Z,1.5
2018-07-03T07:56:39.497Z,1.6
2018-07-03T07:56:56.031Z,1.6
2018-07-03T07:57:12.651Z,1.5
2018-07-03T07:57:29.146Z,1.5
2018-07-03T07:57:45.705Z,1.6
2018-07-03T07:58:02.203Z,1.4
2018-07-03T07:58:18.751Z,1.4
2018-07-03T07:58:35.260Z,1.3
2018-07-03T07:58:51.854Z,1.3
2018-07-03T07:59:08.406Z,1.4
2018-07-03T08:00:39.789Z,1.3
2018-07-03T08:00:56.271Z,1.2
2018-07-03T08:01:12.775Z,1.5
2018-07-03T08:01:29.329Z,1.5
2018-07-03T08:01:45.854Z,1.4
2018-07-03T08:02:02.419Z,1.4
2018-07-03T08:02:18.912Z,1.3
2018-07-03T08:02:35.439Z,1.3
2018-07-03T08:02:52.030Z,1.4
2018-07-03T08:03:10.710Z,1.3
2018-07-03T08:03:28.006Z,1.3
2018-07-03T08:03:44.787Z,1.3
2018-07-03T08:04:01.320Z,1.2
2018-07-03T08:04:17.998Z,1.3
2018-07-03T08:04:34.619Z,1.5
2018-07-03T08:04:51.165Z,1.5
2018-07-03T08:05:07.745Z,1.6
2018-07-03T08:05:24.305Z,1.6
2018-07-03T08:05:40.870Z,1.5
2018-07-03T08:05:57.421Z,1.6
2018-07-03T08:06:13.884Z,1.7
2018-07-03T08:06:30.367Z,1.6
2018-07-03T08:06:47.061Z,1.7
2018-07-03T08:07:03.483Z,1.5
2018-07-03T08:07:19.969Z,1.2
2018-07-03T08:07:36.522Z,1.4
2018-07-03T08:07:53.029Z,1.5
2018-07-03T08:08:09.611Z,1.3
2018-07-03T08:08:26.212Z,1.4
2018-07-03T08:08:42.786Z,1.3
2018-07-03T08:08:59.241Z,1.2
2018-07-03T08:09:15.768Z,1.2
2018-07-03T08:09:32.354Z,1.3
2018-07-03T08:09:48.840Z,1.3
2018-07-03T08:10:05.387Z,1.3
2018-07-03T08:10:21.963Z,1.3
2018-07-03T08:10:38.464Z,1.3
2018-07-03T08:10:54.977Z,1.3
2018-07-03T08:11:11.533Z,1.5
2018-07-03T08:11:28.067Z,1.8
2018-07-03T08:11:45.069Z,1.6
2018-07-03T08:12:01.568Z,1.4
2018-07-03T08:12:18.131Z,1.7
2018-07-03T08:12:34.620Z,1.7
2018-07-03T08:12:51.158Z,1.4
2018-07-03T08:13:07.661Z,1.4
2018-07-03T08:13:24.203Z,1.6
2018-07-03T08:13:40.657Z,1.5
2018-07-03T08:13:57.189Z,1.8
2018-07-03T08:14:13.706Z,2
2018-07-03T08:14:30.225Z,1.8
2018-07-03T08:14:46.785Z,1.6
2018-07-03T08:15:03.320Z,1.5
2018-07-03T08:15:19.795Z,1.7
2018-07-03T08:15:44.110Z,1.5
2018-07-03T08:16:09.563Z,1.4
2018-07-03T08:16:26.089Z,1.4
2018-07-03T08:16:42.634Z,1.7
2018-07-03T08:16:59.220Z,1.8
2018-07-03T08:17:15.673Z,1.6
2018-07-03T08:17:32.518Z,1.4
2018-07-03T08:17:49.496Z,1.4
2018-07-03T08:18:06.188Z,1.4
2018-07-03T08:18:22.664Z,1.5
2018-07-03T08:18:39.304Z,1.6
2018-07-03T08:18:55.813Z,1.6
2018-07-03T08:19:12.369Z,1.3
2018-07-03T08:19:28.849Z,1.2
2018-07-03T08:19:45.429Z,1.4
2018-07-03T08:20:02.022Z,1.5
2018-07-03T08:20:18.597Z,1.3
2018-07-03T08:20:35.102Z,1.1
2018-07-03T08:20:51.692Z,1.1
2018-07-03T08:21:08.212Z,1.2
2018-07-03T08:21:24.800Z,1.3
2018-07-03T08:21:41.309Z,1.3
2018-07-03T08:21:58.027Z,1.2
2018-07-03T08:22:14.464Z,1.1
2018-07-03T08:22:30.989Z,1.3
2018-07-03T08:22:47.523Z,1.6
2018-07-03T08:23:03.983Z,1.6
2018-07-03T08:23:20.466Z,1.7
2018-07-03T08:23:36.980Z,1.7
2018-07-03T08:23:53.490Z,1.6
2018-07-03T08:24:09.998Z,1.6
2018-07-03T08:24:26.513Z,1.6
2018-07-03T08:24:43.035Z,1.4
2018-07-03T08:24:59.556Z,1.2
2018-07-03T08:25:16.079Z,1.2
2018-07-03T08:25:32.615Z,1.2
2018-07-03T08:25:49.128Z,1.2
2018-07-03T08:26:05.667Z,1.4
2018-07-03T08:26:22.158Z,1.4
2018-07-03T08:26:38.723Z,1.2
2018-07-03T08:26:55.164Z,1.3
2018-07-03T08:27:11.648Z,1.1
2018-07-03T08:27:28.212Z,1
2018-07-03T08:27:44.769Z,1.2
2018-07-03T08:28:01.349Z,1.3
2018-07-03T08:28:17.895Z,1.3
2018-07-03T08:28:34.439Z,1.3
2018-07-03T08:28:50.984Z,1.3
2018-07-03T08:29:07.453Z,1.5
2018-07-03T08:29:23.972Z,1.4
2018-07-03T08:29:40.478Z,1.3
2018-07-03T08:29:56.980Z,1.2
2018-07-03T08:30:13.507Z,1.4
2018-07-03T08:30:31.050Z,1.4
2018-07-03T08:30:47.534Z,1.4
2018-07-03T08:31:03.998Z,1.3
2018-07-03T08:31:20.517Z,1.2
2018-07-03T08:31:37.028Z,1.4
2018-07-03T08:31:53.562Z,1.3
2018-07-03T08:32:10.124Z,1.6
2018-07-03T08:32:27.712Z,1.6
2018-07-03T08:32:44.196Z,1.1
2018-07-03T08:33:00.804Z,1.2
2018-07-03T08:33:17.301Z,1.2
2018-07-03T08:33:33.872Z,1.5
2018-07-03T08:33:50.405Z,1.5
2018-07-03T08:34:06.932Z,1.2
2018-07-03T08:34:23.402Z,1.1
2018-07-03T08:34:39.909Z,1.2
2018-07-03T08:34:56.530Z,1.2
2018-07-03T08:35:13.094Z,1.2
2018-07-03T08:35:29.597Z,1.2
2018-07-03T08:35:46.231Z,1.4
2018-07-03T08:36:02.796Z,1.4
2018-07-03T08:36:19.287Z,1.2
2018-07-03T08:36:35.868Z,1.1
2018-07-03T08:36:52.409Z,1.2
2018-07-03T08:37:09.022Z,1.2
2018-07-03T08:37:25.598Z,1.2
2018-07-03T08:37:42.208Z,1.2
2018-07-03T08:37:58.676Z,1.3
2018-07-03T08:38:15.248Z,1.1
2018-07-03T08:38:31.812Z,1.2
2018-07-03T08:38:48.332Z,1.1
2018-07-03T08:39:04.828Z,1
2018-07-03T08:39:21.329Z,1.2
2018-07-03T08:39:37.910Z,1.2
2018-07-03T08:39:54.414Z,1.1
2018-07-03T08:40:10.911Z,1.3
2018-07-03T08:40:27.493Z,1.3
2018-07-03T08:40:44.441Z,1.3
2018-07-03T08:41:00.898Z,1.3
2018-07-03T08:41:17.430Z,1.2
2018-07-03T08:41:34.053Z,1.3
2018-07-03T08:41:50.558Z,1.2
2018-07-03T08:42:07.063Z,1.3
2018-07-03T08:42:23.568Z,1.3
2018-07-03T08:42:40.091Z,1.3
2018-07-03T08:42:56.641Z,1.3
2018-07-03T08:43:21.072Z,1.3
2018-07-03T08:43:37.640Z,1.3
2018-07-03T08:43:54.113Z,1.4
2018-07-03T08:44:11.645Z,1.5
2018-07-03T08:44:28.176Z,1.5
2018-07-03T08:44:44.639Z,1.3
2018-07-03T08:45:01.166Z,1.2
2018-07-03T08:45:17.650Z,1.2
2018-07-03T08:45:34.246Z,1.1
2018-07-03T08:45:50.846Z,1.2
2018-07-03T08:46:07.526Z,1.3
2018-07-03T08:46:24.023Z,1.2
2018-07-03T08:46:40.551Z,1.2
2018-07-03T08:46:57.087Z,1.2
2018-07-03T08:47:13.525Z,1.1
2018-07-03T08:47:30.059Z,1.1
2018-07-03T08:47:46.603Z,1.2
2018-07-03T08:48:03.121Z,1.2
2018-07-03T08:48:19.678Z,1.1
2018-07-03T08:48:44.309Z,1.2
2018-07-03T08:49:08.691Z,1.3
2018-07-03T08:49:25.260Z,1.4
2018-07-03T08:49:41.736Z,1.7
2018-07-03T08:49:58.263Z,1.4
2018-07-03T08:50:14.817Z,1.3
2018-07-03T08:50:32.279Z,1.4
2018-07-03T08:50:48.808Z,1.4
2018-07-03T08:51:06.961Z,1.5
2018-07-03T08:51:23.446Z,1.3
2018-07-03T08:51:48.038Z,1.4
2018-07-03T08:52:04.565Z,1.3
2018-07-03T08:52:20.960Z,1.3
2018-07-03T08:52:37.511Z,1.3
2018-07-03T08:52:54.110Z,1.3
2018-07-03T08:53:10.835Z,1.3
2018-07-03T08:53:27.371Z,1.1
2018-07-03T08:53:43.908Z,1.2
2018-07-03T08:54:08.326Z,1.3
2018-07-03T08:54:24.837Z,1.2
2018-07-03T08:54:41.462Z,1.3
2018-07-03T08:54:57.965Z,1.3
2018-07-03T08:55:14.487Z,1.1
2018-07-03T08:55:30.989Z,1.1
2018-07-03T08:55:47.509Z,1.2
2018-07-03T08:56:04.035Z,1.2
2018-07-03T08:56:20.574Z,1.3
2018-07-03T08:56:37.211Z,1.3
2018-07-03T08:56:53.726Z,1.3
2018-07-03T08:57:10.230Z,1.3
2018-07-03T08:57:26.761Z,1.1
2018-07-03T08:57:43.282Z,1.2
2018-07-03T08:57:59.848Z,1.3
2018-07-03T08:58:16.350Z,1.3
2018-07-03T08:58:32.884Z,1.3
2018-07-03T08:58:49.459Z,1.2
2018-07-03T08:59:05.963Z,1.2
2018-07-03T08:59:22.496Z,1.2
2018-07-03T08:59:39.010Z,1.2
2018-07-03T08:59:55.509Z,1.3
2018-07-03T09:00:12.128Z,1.2
2018-07-03T09:00:28.610Z,1.1
2018-07-03T09:00:45.157Z,1.3
2018-07-03T09:01:01.640Z,1.4
2018-07-03T09:01:18.150Z,1.3
2018-07-03T09:01:34.682Z,1.3
2018-07-03T09:01:51.195Z,1.2
2018-07-03T09:02:07.850Z,1.1
2018-07-03T09:02:24.269Z,1.2
2018-07-03T09:02:40.767Z,1.2
2018-07-03T09:02:57.289Z,1.2
2018-07-03T09:03:13.804Z,1.2
2018-07-03T09:03:30.309Z,1.2
2018-07-03T09:03:46.878Z,1.2
2018-07-03T09:04:03.392Z,1.3
2018-07-03T09:04:19.867Z,1.4
2018-07-03T09:04:36.393Z,1.2
2018-07-03T09:04:52.924Z,1.2
2018-07-03T09:05:09.385Z,1.2
2018-07-03T09:05:26.120Z,1.2
2018-07-03T09:05:42.670Z,1.1
2018-07-03T09:05:59.474Z,1.2
2018-07-03T09:06:15.982Z,1.2
2018-07-03T09:06:33.472Z,1.1
2018-07-03T09:06:50.053Z,1.2
2018-07-03T09:07:06.548Z,1.3
2018-07-03T09:07:23.047Z,1.3
2018-07-03T09:07:39.582Z,1.2
2018-07-03T09:07:56.097Z,1.2
2018-07-03T09:08:12.611Z,1.2
2018-07-03T09:08:29.157Z,1.3
2018-07-03T09:08:45.689Z,1.4
2018-07-03T09:09:02.186Z,1.3
2018-07-03T09:09:18.809Z,1.3
2018-07-03T09:09:35.298Z,1.2
2018-07-03T09:09:51.819Z,1.2
2018-07-03T09:10:08.330Z,1.3
2018-07-03T09:10:24.879Z,1.4
2018-07-03T09:10:41.428Z,1.2
2018-07-03T09:10:57.950Z,1.5
2018-07-03T09:11:14.531Z,1.6
2018-07-03T09:11:31.125Z,1.5
2018-07-03T09:11:47.566Z,1.3
2018-07-03T09:12:04.094Z,1.2
2018-07-03T09:12:20.575Z,1.2
2018-07-03T09:12:45.103Z,1.2
2018-07-03T09:13:01.673Z,1.2
2018-07-03T09:13:18.120Z,1.1
2018-07-03T09:13:34.647Z,1.1
2018-07-03T09:13:51.141Z,1.2
2018-07-03T09:14:07.696Z,1.2
2018-07-03T09:14:24.199Z,1.3
2018-07-03T09:14:40.707Z,1.3
2018-07-03T09:14:57.228Z,1.3
2018-07-03T09:15:13.768Z,1.1
2018-07-03T09:15:30.332Z,1.1
2018-07-03T09:15:46.859Z,1.4
2018-07-03T09:16:03.400Z,1.4
2018-07-03T09:16:19.899Z,1.6
2018-07-03T09:16:36.438Z,1.8
2018-07-03T09:16:53.012Z,1.4
2018-07-03T09:17:09.577Z,1.4
2018-07-03T09:17:27.029Z,1.3
2018-07-03T09:17:43.636Z,1.2
2018-07-03T09:18:00.257Z,1.1
2018-07-03T09:18:16.792Z,1.2
2018-07-03T09:18:33.386Z,1.3
2018-07-03T09:18:50.081Z,1.2
2018-07-03T09:19:06.686Z,1.1
2018-07-03T09:19:24.232Z,1.1
2018-07-03T09:19:40.709Z,1.1
2018-07-03T09:19:57.261Z,1.1
2018-07-03T09:20:13.695Z,1.3
2018-07-03T09:20:30.275Z,1.4
2018-07-03T09:20:46.773Z,1.3
2018-07-03T09:21:03.380Z,1.2
2018-07-03T09:21:19.979Z,1.3
2018-07-03T09:21:36.613Z,1.3
2018-07-03T09:22:00.939Z,1.3
2018-07-03T09:22:17.503Z,1.2
2018-07-03T09:22:34.025Z,1.3
2018-07-03T09:22:50.535Z,1.5
2018-07-03T09:23:07.060Z,1.4
2018-07-03T09:23:23.558Z,1.3
2018-07-03T09:23:40.117Z,1.3
2018-07-03T09:23:56.694Z,1.5
2018-07-03T09:24:13.181Z,1.6
2018-07-03T09:24:29.757Z,1.4
2018-07-03T09:24:46.244Z,1.1
2018-07-03T09:25:02.747Z,1.2
2018-07-03T09:25:27.258Z,1.5
2018-07-03T09:25:43.871Z,1.3
2018-07-03T09:26:00.380Z,1.4
2018-07-03T09:26:16.953Z,1.4
2018-07-03T09:26:34.423Z,1.3
2018-07-03T09:26:50.948Z,1.3
2018-07-03T09:27:07.523Z,1.3
2018-07-03T09:27:24.013Z,1.2
2018-07-03T09:27:48.560Z,1.1
2018-07-03T09:28:05.146Z,1.1
2018-07-03T09:28:21.594Z,1.2
2018-07-03T09:28:38.198Z,1.1
2018-07-03T09:28:54.761Z,1.2
2018-07-03T09:29:11.292Z,1.2
2018-07-03T09:29:27.908Z,1.1
2018-07-03T09:29:46.371Z,1.2
2018-07-03T09:30:03.051Z,1.3
2018-07-03T09:30:19.631Z,1.2
2018-07-03T09:30:36.213Z,1.1
2018-07-03T09:30:52.648Z,1.1
2018-07-03T09:31:09.125Z,1.1
2018-07-03T09:31:25.624Z,1.1
2018-07-03T09:31:42.150Z,1.1
2018-07-03T09:31:58.689Z,1.2
2018-07-03T09:32:15.193Z,1.2
2018-07-03T09:32:31.945Z,1.1
2018-07-03T09:32:48.987Z,1
2018-07-03T09:33:05.829Z,1.1
2018-07-03T09:33:22.315Z,1.3
2018-07-03T09:33:38.889Z,1.3
2018-07-03T09:33:57.346Z,1.4
2018-07-03T09:34:13.839Z,1.4
2018-07-03T09:34:31.316Z,1.2
2018-07-03T09:34:47.844Z,1.1
2018-07-03T09:35:04.334Z,1.1
2018-07-03T09:35:20.865Z,1.2
2018-07-03T09:35:37.350Z,1.2
2018-07-03T09:35:53.840Z,1.2
2018-07-03T09:36:10.484Z,1.1
2018-07-03T09:36:27.055Z,1.2
2018-07-03T09:36:43.605Z,1.3
2018-07-03T09:37:00.296Z,1.3
2018-07-03T09:37:16.903Z,1.2
2018-07-03T09:37:33.606Z,1.3
2018-07-03T09:37:50.239Z,1.4
2018-07-03T09:38:06.723Z,1.4
2018-07-03T09:38:31.213Z,1.3
2018-07-03T09:38:47.755Z,1.4
2018-07-03T09:39:04.205Z,1.2
2018-07-03T09:39:20.692Z,1.2
2018-07-03T09:39:37.353Z,1.3
2018-07-03T09:39:53.904Z,1.2
2018-07-03T09:40:10.531Z,1.1
2018-07-03T09:40:27.049Z,1.2
2018-07-03T09:40:43.568Z,1.2
2018-07-03T09:41:00.115Z,1.7
2018-07-03T09:41:16.614Z,2
2018-07-03T09:41:33.114Z,1.5
2018-07-03T09:41:49.637Z,1.2
2018-07-03T09:42:06.133Z,1.1
2018-07-03T09:42:22.624Z,1.1
2018-07-03T09:42:39.141Z,1.3
2018-07-03T09:42:56.646Z,1.4
2018-07-03T09:43:13.167Z,1.3
2018-07-03T09:43:29.818Z,1.2
2018-07-03T09:43:46.409Z,1.3
2018-07-03T09:44:03.069Z,1.4
2018-07-03T09:44:19.722Z,1.3
2018-07-03T09:44:36.330Z,1.3
2018-07-03T09:44:52.876Z,1.3
2018-07-03T09:45:09.531Z,1.3
2018-07-03T09:45:26.140Z,1.1
2018-07-03T09:45:42.881Z,1.3
2018-07-03T09:45:59.436Z,1.4
2018-07-03T09:46:16.033Z,1.2
2018-07-03T09:46:32.650Z,1.3
2018-07-03T09:46:49.082Z,1.3
2018-07-03T09:47:05.597Z,1.2
2018-07-03T09:47:22.062Z,1.3
2018-07-03T09:47:38.570Z,1.2
2018-07-03T09:47:55.058Z,1.2
2018-07-03T09:48:11.559Z,1.2
2018-07-03T09:48:28.038Z,1.2
2018-07-03T09:48:44.555Z,1.3
2018-07-03T09:49:01.159Z,1.3
2018-07-03T09:49:17.834Z,1.4
2018-07-03T09:49:34.397Z,1.3
2018-07-03T09:49:51.056Z,1.2
2018-07-03T09:50:07.704Z,1.1
2018-07-03T09:50:24.205Z,1.1
2018-07-03T09:50:40.855Z,1.2
2018-07-03T09:50:57.415Z,1.2
2018-07-03T09:51:14.013Z,1.2
2018-07-03T09:51:30.494Z,1.3
2018-07-03T09:51:47.080Z,1.1
2018-07-03T09:52:03.651Z,1.1
2018-07-03T09:52:20.818Z,1.1
2018-07-03T09:52:37.725Z,1
2018-07-03T09:52:54.280Z,1
2018-07-03T09:53:10.760Z,1.1
2018-07-03T09:53:27.747Z,1.2
2018-07-03T09:53:44.143Z,1.3
2018-07-03T09:54:00.738Z,1.3
2018-07-03T09:54:17.297Z,1.2
2018-07-03T09:54:33.813Z,1.2
2018-07-03T09:54:59.539Z,1.1
2018-07-03T09:55:25.016Z,1.2
2018-07-03T09:55:41.492Z,1.2
2018-07-03T09:55:58.000Z,1.2
2018-07-03T09:56:14.586Z,1.1
2018-07-03T09:56:31.268Z,1.2
2018-07-03T09:56:47.785Z,1.3
2018-07-03T09:57:04.589Z,1.3
2018-07-03T09:57:21.112Z,1.3
2018-07-03T09:57:37.600Z,1.4
2018-07-03T09:57:54.113Z,1.4
2018-07-03T09:58:10.624Z,1.3
2018-07-03T09:58:27.150Z,1.5
2018-07-03T09:58:51.517Z,1.7
2018-07-03T09:59:08.222Z,1.5
2018-07-03T09:59:25.051Z,1.4
2018-07-03T09:59:41.543Z,1.3
2018-07-03T09:59:58.071Z,1.2
2018-07-03T10:00:14.676Z,1.1
2018-07-03T10:00:31.248Z,1.1
2018-07-03T10:00:47.891Z,1.3
2018-07-03T10:01:04.456Z,1.3
2018-07-03T10:01:20.935Z,1.1
2018-07-03T10:01:37.431Z,1.1
2018-07-03T10:01:53.951Z,1.1
2018-07-03T10:02:10.566Z,1.4
2018-07-03T10:02:27.095Z,1.3
2018-07-03T10:02:43.604Z,1.2
2018-07-03T10:03:00.090Z,1.1
2018-07-03T10:03:16.622Z,1.1
2018-07-03T10:03:33.152Z,1.1
2018-07-03T10:03:49.665Z,1.1
2018-07-03T10:04:06.162Z,1
2018-07-03T10:04:22.729Z,1.1
2018-07-03T10:04:39.219Z,1.3
2018-07-03T10:04:55.780Z,1.1
2018-07-03T10:05:12.248Z,1.2
2018-07-03T10:05:28.715Z,1.3
2018-07-03T10:05:45.214Z,1.3
2018-07-03T10:06:01.745Z,1.2
2018-07-03T10:06:18.274Z,1.3
2018-07-03T10:06:34.710Z,1.2
2018-07-03T10:06:51.262Z,1.2
2018-07-03T10:07:07.754Z,1.2
2018-07-03T10:07:24.256Z,1.2
2018-07-03T10:07:40.880Z,1.3
2018-07-03T10:07:57.465Z,1.4
2018-07-03T10:08:14.211Z,1.4
2018-07-03T10:08:30.727Z,1.4
2018-07-03T10:08:47.217Z,1.4
2018-07-03T10:09:03.759Z,1.2
2018-07-03T10:09:20.249Z,1.2
2018-07-03T10:09:36.779Z,1.3
2018-07-03T10:09:53.224Z,1.3
2018-07-03T10:10:09.726Z,1.2
2018-07-03T10:10:26.218Z,1.1
2018-07-03T10:10:42.689Z,1.3
2018-07-03T10:10:59.244Z,1.4
2018-07-03T10:11:23.811Z,1.5
2018-07-03T10:11:40.368Z,1.5
2018-07-03T10:11:56.846Z,1.4
2018-07-03T10:12:13.367Z,1.3
2018-07-03T10:12:29.968Z,1.2
2018-07-03T10:12:47.536Z,1.4
2018-07-03T10:13:04.076Z,1.3
2018-07-03T10:13:20.549Z,1.3
2018-07-03T10:13:37.133Z,1.3
2018-07-03T10:13:54.760Z,1.2
2018-07-03T10:14:11.470Z,1
2018-07-03T10:14:28.002Z,1
2018-07-03T10:14:44.592Z,1.3
2018-07-03T10:15:01.159Z,1.2
2018-07-03T10:15:17.661Z,1.1
2018-07-03T10:15:34.378Z,1.1
2018-07-03T10:15:50.848Z,1.1
2018-07-03T10:16:07.399Z,1.1
2018-07-03T10:16:23.871Z,1.1
2018-07-03T10:16:40.418Z,1.1
2018-07-03T10:16:56.974Z,1.1
2018-07-03T10:17:13.484Z,1.2
2018-07-03T10:17:29.990Z,1.2
2018-07-03T10:17:46.592Z,1.2
2018-07-03T10:18:03.142Z,1.3
2018-07-03T10:18:19.595Z,1.3
2018-07-03T10:18:36.100Z,1.5
2018-07-03T10:18:52.759Z,1.4
2018-07-03T10:19:09.332Z,1.3
2018-07-03T10:19:25.913Z,1.3
2018-07-03T10:19:42.483Z,1.1
2018-07-03T10:19:59.100Z,1
2018-07-03T10:20:15.686Z,1.1
2018-07-03T10:20:32.217Z,1.1
2018-07-03T10:20:48.733Z,1.1
2018-07-03T10:21:05.303Z,1.2
2018-07-03T10:21:21.786Z,1.3
2018-07-03T10:21:38.277Z,1.4
2018-07-03T10:21:54.866Z,1.2
2018-07-03T10:22:11.560Z,1.2
2018-07-03T10:22:28.134Z,1.3
2018-07-03T10:22:44.721Z,1.7
2018-07-03T10:23:01.247Z,1.9
2018-07-03T10:23:17.784Z,1.7
2018-07-03T10:23:34.327Z,1.5
2018-07-03T10:23:50.797Z,1.4
2018-07-03T10:24:07.328Z,1.2
2018-07-03T10:24:23.849Z,1.2
2018-07-03T10:24:40.451Z,1.2
2018-07-03T10:24:57.013Z,1.3
2018-07-03T10:25:13.546Z,1.5
2018-07-03T10:25:30.168Z,1.4
2018-07-03T10:25:46.830Z,1.3
2018-07-03T10:26:03.908Z,1.4
2018-07-03T10:26:20.829Z,1.4
2018-07-03T10:26:37.437Z,1.2
2018-07-03T10:26:53.933Z,1.1
2018-07-03T10:27:10.435Z,1.1
2018-07-03T10:27:26.941Z,1.2
2018-07-03T10:27:51.410Z,1.3
2018-07-03T10:28:07.959Z,1.3
2018-07-03T10:28:24.596Z,1.3
2018-07-03T10:28:41.129Z,1.3
2018-07-03T10:28:57.647Z,1.2
2018-07-03T10:29:14.140Z,1.2
2018-07-03T10:29:30.675Z,1.2
2018-07-03T10:29:47.152Z,1.4
2018-07-03T10:30:03.645Z,1.3
2018-07-03T10:30:20.149Z,1.4
2018-07-03T10:30:36.697Z,1.3
2018-07-03T10:31:02.310Z,1.2
2018-07-03T10:31:18.901Z,1.3
2018-07-03T10:31:35.383Z,1
2018-07-03T10:31:52.073Z,1
2018-07-03T10:32:08.559Z,1.2
2018-07-03T10:32:25.111Z,1.2
2018-07-03T10:32:41.612Z,1.2
2018-07-03T10:32:58.127Z,1.2
2018-07-03T10:33:14.683Z,1.1
2018-07-03T10:33:31.244Z,1.1
2018-07-03T10:33:47.703Z,1.2
2018-07-03T10:34:04.193Z,1.4
2018-07-03T10:34:21.670Z,1.3
2018-07-03T10:34:38.173Z,1.3
2018-07-03T10:34:54.762Z,1.4
2018-07-03T10:35:11.278Z,1.4
2018-07-03T10:35:27.821Z,1.4
2018-07-03T10:35:44.285Z,1.4
2018-07-03T10:36:00.831Z,1.4
2018-07-03T10:36:17.311Z,1.6
2018-07-03T10:36:33.824Z,1.7
2018-07-03T10:36:51.316Z,1.5
2018-07-03T10:37:07.840Z,1.2
2018-07-03T10:37:32.281Z,1.2
2018-07-03T10:37:49.040Z,1.3
2018-07-03T10:38:05.749Z,1.4
2018-07-03T10:38:22.411Z,1.4
2018-07-03T10:38:38.918Z,1.4
2018-07-03T10:38:55.431Z,1.4
2018-07-03T10:39:11.955Z,1.4
2018-07-03T10:39:28.408Z,1.9
2018-07-03T10:39:44.933Z,2.3
2018-07-03T10:40:01.432Z,1.9
2018-07-03T10:40:17.951Z,1.5
2018-07-03T10:40:34.554Z,1.3
2018-07-03T10:40:51.299Z,1.5
2018-07-03T10:41:08.317Z,1.6
2018-07-03T10:41:24.878Z,1.4
2018-07-03T10:41:41.382Z,1.3
2018-07-03T10:41:57.887Z,1.3
2018-07-03T10:42:14.397Z,1.1
2018-07-03T10:42:30.917Z,1.1
2018-07-03T10:42:48.165Z,1.3
2018-07-03T10:43:04.701Z,1.3
2018-07-03T10:43:21.168Z,1.1
2018-07-03T10:43:37.691Z,1.2
2018-07-03T10:43:54.110Z,1.2
2018-07-03T10:44:18.613Z,1.2
2018-07-03T10:44:35.238Z,1.3
2018-07-03T10:44:51.900Z,1.2
2018-07-03T10:45:08.692Z,1.4
2018-07-03T10:45:25.386Z,1.5
2018-07-03T10:45:41.824Z,1.6
2018-07-03T10:45:58.741Z,1.4
2018-07-03T10:46:15.374Z,1.2
2018-07-03T10:46:32.048Z,1.2
2018-07-03T10:46:48.527Z,1.1
2018-07-03T10:47:05.026Z,1.2
2018-07-03T10:47:21.524Z,1.3
2018-07-03T10:47:38.246Z,1.3
2018-07-03T10:47:54.938Z,1.4
2018-07-03T10:48:20.706Z,1.4
2018-07-03T10:48:37.268Z,1.4
2018-07-03T10:48:53.809Z,1.3
2018-07-03T10:49:10.250Z,1.3
2018-07-03T10:49:26.803Z,1.5
2018-07-03T10:49:43.224Z,1.4
2018-07-03T10:49:59.710Z,1.3
2018-07-03T10:50:16.211Z,1.3
2018-07-03T10:50:32.795Z,1.6
2018-07-03T10:50:49.491Z,1.8